Astoria, OR

4:54 PM PDT on September 19, 2014 (GMT -0700)
The Slope of South | Change Station
CLOSE
Current Station
Personal Weather Station
Location: Astoria, OR
Elevation: 213 ft
Nearby Weather Stations

Elev 213 ft 46.18 °N, 123.84 °W | Updated 7 minutes ago

Clear
Clear
69.4 °F
Feels Like 69.4 °F
N
4.2
Wind Variable Wind from SW

Today
High -- | Low -- °F
--% Chance of Precip.
Yesterday
High -- | Low -- °F
Precip. -- in
6:58 AM 7:18 PM
Waning Crescent, 16% visible
Pressure 30.09 in
Visibility 10.0 miles
Clouds Clear
Dew Point 62 °F
Humidity 77%
Rainfall 0.00 in
Snow Depth 0 in , 0 in , 0 in
UV 3 out of 12
Pollen 1.20 out of 12
Air Quality Not available.
Flu Activity Not available.
METAR KAST 192255Z AUTO 33010KT 10SM CLR 21/16 A3008 RMK AO2 SLP187 T02110156

More Conditions Fewer Conditions

Pressure 30.09 in
Visibility 10.0 miles
Clouds Clear
Dew Point 62 °F
Humidity 77%
Rainfall 0.00 in
Snow Depth 0 in , 0 in , 0 in
UV 3 out of 12
Pollen 1.20 out of 12
Air Quality Not available.
Flu Activity Not available.
METAR KAST 192255Z AUTO 33010KT 10SM CLR 21/16 A3008 RMK AO2 SLP187 T02110156

More Conditions Fewer Conditions

10-Day Weather Forecast

Almanac

Astronomy

Sep. 19, 2014 Rise Set
Actual Time 6:58 AM PDT 7:18 PM PDT
Civil Twilight 6:28 AM PDT 7:48 PM PDT
Nautical Twilight 5:53 AM PDT 8:23 PM PDT
Astronomical Twilight 5:16 AM PDT 9:00 PM PDT
Moon 2:37 AM PDT 5:00 PM PDT
Length of Visible Light 13h 20m
Length of Day
12h 20m
Tomorrow will be 3m 15s shorter.
Waning Crescent, 16% of the Moon is Illuminated
Today
Waning Crescent
Sep 24
New
Oct 1
First Quarter
Oct 8
Full
Oct 15
Last Quarter

Today's Extremes

State Highs State Lows

Community

WunderPhotos

Upload Photos

1,754,730 photos uploaded!

Nearby

Snow Depth

Station Depth Elevation
Peavine Ridge 0 in 3500 ft
Madison Butte 0 in 5250 ft
Mckenzie 0 in 4800 ft
Schneider Meadows 0 in 5400 ft
Sevenmile Marsh 0 in 6200 ft

Earthquake Activity

City Distance Mag. Time & Date
Seabeck, Washington 102 miles 4.0 3:06 AM PDT
2014-09-17
Minimum magnitude displayed is 2.5.

Coastal Water Temperatures

Place Temperature
Astoria, OR 64.9 °F
Westport, WA 60.1 °F

Nearby Weather Stations